createdAt,value
2023-01-21T00:00:22.623Z,101457.19
2023-01-21T00:02:52.234Z,101477.53
2023-01-21T00:05:21.795Z,101480.50
2023-01-21T00:08:50.547Z,101496.56
2023-01-21T00:12:19.175Z,101497.34
2023-01-21T00:15:48.079Z,101496.38
2023-01-21T00:19:16.821Z,101499.91
2023-01-21T00:22:45.750Z,101478.53
2023-01-21T00:25:54.724Z,101505.09
2023-01-21T00:29:23.421Z,101514.22
2023-01-21T00:32:52.124Z,101513.47
2023-01-21T00:36:20.859Z,101521.06
2023-01-21T00:39:52.363Z,101526.41
2023-01-21T00:43:21.012Z,101532.97
2023-01-21T00:46:49.636Z,101524.19
2023-01-21T00:50:18.626Z,101535.84
2023-01-21T00:53:47.354Z,101525.41
2023-01-21T00:57:16.061Z,101534.53
2023-01-21T01:00:45.130Z,101532.72
2023-01-21T01:04:13.790Z,101530.03
2023-01-21T01:07:42.405Z,101523.59
2023-01-21T01:11:11.197Z,101525.84
2023-01-21T01:14:39.811Z,101518.94
2023-01-21T01:18:08.533Z,101523.59
2023-01-21T01:21:37.208Z,101526.84
2023-01-21T01:25:06.057Z,101508.00
2023-01-21T01:28:34.725Z,101519.38
2023-01-21T01:32:03.395Z,101524.72
2023-01-21T01:35:31.987Z,101533.06
2023-01-21T01:39:00.704Z,101543.63
2023-01-21T01:42:29.350Z,101543.22
2023-01-21T01:45:02.990Z,101539.59
2023-01-21T01:47:39.431Z,101544.28
2023-01-21T01:51:08.159Z,101541.91
2023-01-21T01:54:36.864Z,101539.81
2023-01-21T01:58:05.746Z,101508.41
2023-01-21T02:01:36.268Z,101537.69
2023-01-21T02:05:05.109Z,101544.94
2023-01-21T02:08:43.245Z,101542.25
2023-01-21T02:11:46.017Z,101541.28
2023-01-21T02:15:14.664Z,101540.56
2023-01-21T02:18:55.429Z,101519.19
2023-01-21T02:22:12.293Z,101531.00
2023-01-21T02:25:07.733Z,101528.13
2023-01-21T02:28:34.752Z,101514.78
2023-01-21T02:31:58.692Z,101512.44
2023-01-21T02:35:36.478Z,101510.34
2023-01-21T02:39:14.286Z,101505.44
2023-01-21T02:42:09.706Z,101493.41
2023-01-21T02:45:30.622Z,101497.53
2023-01-21T02:49:11.304Z,101491.25
2023-01-21T02:51:40.971Z,101482.81
2023-01-21T02:54:41.911Z,101476.50
2023-01-21T02:57:19.026Z,101480.06
2023-01-21T02:59:53.899Z,101479.53
2023-01-21T03:02:47.521Z,101482.94
2023-01-21T03:05:42.827Z,101483.41
2023-01-21T03:08:32.600Z,101482.56
2023-01-21T03:11:20.459Z,101476.31
2023-01-21T03:14:31.180Z,101469.53
2023-01-21T03:17:11.770Z,101466.41
2023-01-21T03:20:05.944Z,101467.66
2023-01-21T03:22:38.193Z,101477.91
2023-01-21T03:25:11.127Z,101477.66
2023-01-21T03:27:45.007Z,101476.53
2023-01-21T03:30:25.041Z,101476.63
2023-01-21T03:32:57.780Z,101450.16
2023-01-21T03:35:37.729Z,101425.94
2023-01-21T03:38:26.814Z,101468.94
2023-01-21T03:41:09.253Z,101464.72
2023-01-21T03:43:38.951Z,101452.78
2023-01-21T03:46:23.503Z,101464.50
2023-01-21T03:49:01.588Z,101461.56
2023-01-21T03:51:43.734Z,101461.78
2023-01-21T03:54:13.489Z,101448.09
2023-01-21T03:56:43.271Z,101441.19
2023-01-21T03:59:13.093Z,101437.25
2023-01-21T04:01:43.297Z,101443.50
2023-01-21T04:04:13.225Z,101439.81
2023-01-21T04:06:42.941Z,101431.22
2023-01-21T04:09:13.211Z,101438.00
2023-01-21T04:11:42.810Z,101434.75
2023-01-21T04:14:12.396Z,101428.13
2023-01-21T04:16:42.099Z,101431.25
2023-01-21T04:19:11.978Z,101432.09
2023-01-21T04:21:41.623Z,101424.75
2023-01-21T04:24:11.385Z,101412.19
2023-01-21T04:26:40.995Z,101424.91
2023-01-21T04:29:10.635Z,101428.75
2023-01-21T04:31:40.821Z,101423.25
2023-01-21T04:34:10.415Z,101412.78
2023-01-21T04:36:39.981Z,101412.09
2023-01-21T04:39:09.832Z,101372.94
2023-01-21T04:41:39.489Z,101408.53
2023-01-21T04:44:09.212Z,101412.34
2023-01-21T04:46:38.924Z,101407.66
2023-01-21T04:49:08.550Z,101403.00
2023-01-21T04:51:38.299Z,101416.44
2023-01-21T04:54:08.048Z,101370.97
2023-01-21T04:56:37.587Z,101367.16
2023-01-21T04:59:09.882Z,101406.53
2023-01-21T05:01:39.507Z,101409.06
2023-01-21T05:04:09.126Z,101399.19
2023-01-21T05:06:38.750Z,101341.59
2023-01-21T05:09:08.422Z,101397.03
2023-01-21T05:11:38.039Z,101391.38
2023-01-21T05:14:07.736Z,101359.19
2023-01-21T05:16:37.318Z,101334.47
2023-01-21T05:19:07.141Z,101384.56
2023-01-21T05:21:36.854Z,101378.75
2023-01-21T05:24:06.528Z,101384.38
2023-01-21T05:26:36.180Z,101384.34
2023-01-21T05:29:06.650Z,101373.13
2023-01-21T05:31:36.540Z,101379.75
2023-01-21T05:34:06.399Z,101374.78
2023-01-21T05:36:36.850Z,101370.78
2023-01-21T05:39:06.978Z,101375.56
2023-01-21T05:41:36.961Z,101320.78
2023-01-21T05:44:06.546Z,101372.03
2023-01-21T05:46:36.151Z,101370.59
2023-01-21T05:49:06.050Z,101367.09
2023-01-21T05:51:35.731Z,101373.16
2023-01-21T05:54:06.152Z,101363.78
2023-01-21T05:56:35.792Z,101358.50
2023-01-21T05:59:05.522Z,101357.34
2023-01-21T06:01:35.340Z,101359.19
2023-01-21T06:04:04.936Z,101367.47
2023-01-21T06:06:34.546Z,101366.91
2023-01-21T06:09:04.256Z,101300.69
2023-01-21T06:11:33.940Z,101371.22
2023-01-21T06:14:03.488Z,101348.22
2023-01-21T06:16:33.123Z,101355.97
2023-01-21T06:19:02.695Z,101359.88
2023-01-21T06:21:32.378Z,101367.38
2023-01-21T06:24:03.454Z,101364.38
2023-01-21T06:26:33.143Z,101362.75
2023-01-21T06:29:03.156Z,101357.59
2023-01-21T06:31:32.835Z,101355.44
2023-01-21T06:34:02.522Z,101341.50
2023-01-21T06:36:32.111Z,101338.88
2023-01-21T06:39:01.711Z,101341.41
2023-01-21T06:41:31.547Z,101336.75
2023-01-21T06:44:01.112Z,101328.41
2023-01-21T06:46:30.664Z,101335.69
2023-01-21T06:49:00.398Z,101324.81
2023-01-21T06:51:30.128Z,101313.72
2023-01-21T06:53:59.885Z,101306.16
2023-01-21T06:56:29.518Z,101296.91
2023-01-21T06:58:59.106Z,101284.47
2023-01-21T07:01:32.389Z,101268.81
2023-01-21T07:04:03.187Z,101265.09
2023-01-21T07:06:32.849Z,101272.88
2023-01-21T07:09:02.546Z,101272.22
2023-01-21T07:11:32.934Z,101266.81
2023-01-21T07:14:02.526Z,101270.91
2023-01-21T07:16:32.093Z,101270.25
2023-01-21T07:19:01.764Z,101285.94
2023-01-21T07:21:31.457Z,101293.53
2023-01-21T07:24:02.135Z,101303.50
2023-01-21T07:26:31.646Z,101297.59
2023-01-21T07:29:01.965Z,101300.78
2023-01-21T07:31:31.774Z,101292.38
2023-01-21T07:34:01.593Z,101291.19
2023-01-21T07:36:31.354Z,101276.72
2023-01-21T07:39:01.033Z,101282.78
2023-01-21T07:41:30.640Z,101288.84
2023-01-21T07:44:00.639Z,101279.59
2023-01-21T07:46:30.372Z,101282.13
2023-01-21T07:49:00.004Z,101233.69
2023-01-21T07:51:29.627Z,101218.72
2023-01-21T07:53:59.917Z,101271.84
2023-01-21T07:56:29.569Z,101272.34
2023-01-21T07:58:59.239Z,101269.13
2023-01-21T08:02:28.934Z,101247.56
2023-01-21T08:04:58.584Z,101265.09
2023-01-21T08:08:27.363Z,101270.63
2023-01-21T08:11:56.013Z,101270.63
2023-01-21T08:15:24.723Z,101246.53
2023-01-21T08:18:53.409Z,101251.25
2023-01-21T08:22:22.146Z,101250.91
2023-01-21T08:25:50.882Z,101240.44
2023-01-21T08:29:19.507Z,101253.72
2023-01-21T08:32:48.148Z,101215.09
2023-01-21T08:36:16.925Z,101266.16
2023-01-21T08:39:26.007Z,101255.53
2023-01-21T08:42:54.642Z,101237.63
2023-01-21T08:46:23.368Z,101266.47
2023-01-21T08:49:52.642Z,101281.28
2023-01-21T08:53:21.644Z,101287.44
2023-01-21T08:56:50.309Z,101303.59
2023-01-21T09:00:19.197Z,101320.31
2023-01-21T09:03:47.899Z,101329.19
2023-01-21T09:07:16.600Z,101312.56
2023-01-21T09:10:43.794Z,101328.78
2023-01-21T09:14:12.461Z,101324.19
2023-01-21T09:17:41.188Z,101336.97
2023-01-21T09:21:09.960Z,101342.13
2023-01-21T09:24:38.743Z,101332.00
2023-01-21T09:28:10.521Z,101327.75
2023-01-21T09:31:45.017Z,101323.53
2023-01-21T09:35:13.715Z,101315.78
2023-01-21T09:38:42.411Z,101323.44
2023-01-21T09:41:52.735Z,101317.69
2023-01-21T09:51:40.844Z,101313.25
2023-01-21T09:54:35.344Z,101302.09
2023-01-21T09:57:29.128Z,101296.03
2023-01-21T09:59:58.090Z,101296.03
2023-01-21T10:02:55.457Z,101302.25
2023-01-21T10:05:43.408Z,101296.13
2023-01-21T10:08:42.206Z,101303.66
2023-01-21T10:11:29.873Z,101304.41
2023-01-21T10:14:29.652Z,101312.56
2023-01-21T10:17:17.205Z,101316.97
2023-01-21T10:20:15.516Z,101321.97
2023-01-21T10:22:54.282Z,101321.03
2023-01-21T10:25:32.894Z,101316.94
2023-01-21T10:28:08.406Z,101342.13
2023-01-21T10:30:42.158Z,101350.66
2023-01-21T10:33:34.193Z,101352.66
2023-01-21T10:36:18.335Z,101354.22
2023-01-21T10:39:09.324Z,101360.03
2023-01-21T10:41:53.879Z,101363.34
2023-01-21T10:44:31.065Z,101367.44
2023-01-21T10:47:18.627Z,101366.19
2023-01-21T10:50:06.683Z,101369.31
2023-01-21T10:52:53.296Z,101366.94
2023-01-21T10:55:59.591Z,101363.13
2023-01-21T10:58:43.319Z,101363.53
2023-01-21T11:01:30.515Z,101358.06
2023-01-21T11:04:06.116Z,101359.88
2023-01-21T11:06:37.407Z,101347.88
2023-01-21T11:09:11.181Z,101345.66
2023-01-21T11:11:43.090Z,101348.47
2023-01-21T11:14:12.929Z,101336.06
2023-01-21T11:16:45.882Z,101326.44
2023-01-21T11:19:18.918Z,101315.16
2023-01-21T11:22:06.939Z,101316.16
2023-01-21T11:25:20.278Z,101298.34
2023-01-21T11:27:49.790Z,101297.22
2023-01-21T11:30:50.637Z,101308.28
2023-01-21T11:33:25.411Z,101311.25
2023-01-21T11:35:57.159Z,101304.16
2023-01-21T11:38:36.897Z,101311.50
2023-01-21T11:41:19.968Z,101309.16
2023-01-21T11:43:53.201Z,101309.38
2023-01-21T11:46:35.750Z,101316.47
2023-01-21T11:49:11.395Z,101306.00
2023-01-21T11:51:43.002Z,101310.94
2023-01-21T11:54:24.387Z,101297.81
2023-01-21T11:57:00.494Z,101294.16
2023-01-21T11:59:42.464Z,101288.22
2023-01-21T12:02:38.349Z,101283.28
2023-01-21T12:05:25.332Z,101293.59
2023-01-21T12:07:55.055Z,101296.41
2023-01-21T12:10:45.057Z,101294.31
2023-01-21T12:13:20.215Z,101293.59
2023-01-21T12:15:57.813Z,101280.47
2023-01-21T12:18:36.898Z,101291.91
2023-01-21T12:21:43.231Z,101289.34
2023-01-21T12:24:28.350Z,101302.19
2023-01-21T12:27:30.645Z,101299.53
2023-01-21T12:30:08.165Z,101295.44
2023-01-21T12:32:44.666Z,101292.06
2023-01-21T12:35:19.270Z,101300.38
2023-01-21T12:37:55.828Z,101305.91
2023-01-21T12:40:38.879Z,101300.69
2023-01-21T12:43:24.569Z,101294.31
2023-01-21T12:46:04.855Z,101272.03
2023-01-21T12:48:42.423Z,101262.56
2023-01-21T12:51:23.237Z,101272.47
2023-01-21T12:54:20.645Z,101269.34
2023-01-21T12:57:32.778Z,101269.47
2023-01-21T13:01:04.150Z,101273.72
2023-01-21T13:04:17.803Z,101274.41
2023-01-21T13:07:46.534Z,101274.28
2023-01-21T13:11:07.384Z,101269.88
2023-01-21T13:14:25.190Z,101219.78
2023-01-21T13:17:56.636Z,101276.53
2023-01-21T13:21:24.045Z,101284.44
2023-01-21T13:24:22.490Z,101297.28
2023-01-21T13:27:32.667Z,101283.28
2023-01-21T13:30:40.352Z,101284.09
2023-01-21T13:33:58.471Z,101277.34
2023-01-21T13:37:02.921Z,101281.03
2023-01-21T13:40:34.459Z,101291.88
2023-01-21T13:43:49.174Z,101282.13
2023-01-21T13:46:44.633Z,101273.66
2023-01-21T13:50:04.206Z,101290.59
2023-01-21T13:53:16.101Z,101285.50
2023-01-21T13:56:36.928Z,101287.47
2023-01-21T14:00:20.727Z,101299.75
2023-01-21T14:03:19.433Z,101303.69
2023-01-21T14:06:49.113Z,101292.28
2023-01-21T14:09:31.644Z,101285.06
2023-01-21T14:12:59.814Z,101287.75
2023-01-21T14:16:32.927Z,101274.66
2023-01-21T14:20:17.043Z,101263.22
2023-01-21T14:23:09.381Z,101270.53
2023-01-21T14:26:01.885Z,101280.28
2023-01-21T14:28:37.473Z,101273.38
2023-01-21T14:31:07.037Z,101262.66
2023-01-21T14:33:51.163Z,101272.66
2023-01-21T14:36:30.047Z,101269.25
2023-01-21T14:39:10.044Z,101260.94
2023-01-21T14:42:20.071Z,101247.44
2023-01-21T14:44:52.846Z,101240.09
2023-01-21T14:47:42.515Z,101253.75
2023-01-21T14:50:12.378Z,101247.81
2023-01-21T14:52:49.286Z,101242.34
2023-01-21T14:55:33.428Z,101239.94
2023-01-21T14:58:03.652Z,101233.72
2023-01-21T15:00:38.696Z,101228.38
2023-01-21T15:04:07.404Z,101236.69
2023-01-21T15:07:15.613Z,101236.53
2023-01-21T15:10:11.213Z,101154.22
2023-01-21T15:12:44.858Z,101224.97
2023-01-21T15:15:41.922Z,101228.34
2023-01-21T15:18:43.301Z,101242.59
2023-01-21T15:21:43.681Z,101236.81
2023-01-21T15:24:28.547Z,101227.22
2023-01-21T15:27:30.331Z,101220.75
2023-01-21T15:30:00.187Z,101211.84
2023-01-21T15:32:50.863Z,101208.72
2023-01-21T15:35:27.160Z,101199.88
2023-01-21T15:38:17.380Z,101208.59
2023-01-21T15:41:02.803Z,101198.75
2023-01-21T15:43:57.968Z,101202.53
2023-01-21T15:46:47.637Z,101203.53
2023-01-21T15:49:29.311Z,101200.88
2023-01-21T15:52:22.495Z,101111.09
2023-01-21T15:54:59.853Z,101195.66
2023-01-21T15:58:00.038Z,101200.00
2023-01-21T16:00:37.055Z,101199.28
2023-01-21T16:03:46.558Z,101181.41
2023-01-21T16:06:27.635Z,101181.56
2023-01-21T16:09:54.228Z,101182.53
2023-01-21T16:12:35.823Z,101177.44
2023-01-21T16:15:20.303Z,101158.69
2023-01-21T16:18:12.327Z,101158.56
2023-01-21T16:20:48.709Z,101147.00
2023-01-21T16:23:22.909Z,101141.66
2023-01-21T16:25:55.075Z,101134.75
2023-01-21T16:28:24.801Z,101124.03
2023-01-21T16:31:01.053Z,101115.28
2023-01-21T16:33:30.728Z,101112.59
2023-01-21T16:36:07.319Z,101126.00
2023-01-21T16:38:39.176Z,101116.97
2023-01-21T16:41:15.440Z,101137.25
2023-01-21T16:43:49.697Z,101125.03
2023-01-21T16:46:41.039Z,101132.66
2023-01-21T16:49:19.204Z,101138.97
2023-01-21T16:51:58.905Z,101156.75
2023-01-21T16:54:30.136Z,101140.03
2023-01-21T16:57:05.618Z,101171.09
2023-01-21T16:59:43.601Z,101104.75
2023-01-21T17:02:29.618Z,101190.13
2023-01-21T17:05:01.212Z,101206.03
2023-01-21T17:07:33.153Z,101204.38
2023-01-21T17:10:28.781Z,101216.75
2023-01-21T17:13:04.335Z,101223.94
2023-01-21T17:15:37.682Z,101238.31
2023-01-21T17:18:09.023Z,101201.69
2023-01-21T17:20:49.460Z,101160.63
2023-01-21T17:23:25.989Z,101193.53
2023-01-21T17:26:08.233Z,101283.38
2023-01-21T17:28:59.301Z,101299.56
2023-01-21T17:31:31.654Z,101215.25
2023-01-21T17:34:25.334Z,101293.63
2023-01-21T17:36:56.211Z,101303.63
2023-01-21T17:39:53.198Z,101315.19
2023-01-21T17:42:30.869Z,101313.75
2023-01-21T17:45:06.123Z,101321.66
2023-01-21T17:48:04.018Z,101328.09
2023-01-21T17:50:33.041Z,101323.75
2023-01-21T17:53:11.085Z,101336.13
2023-01-21T17:55:42.477Z,101334.47
2023-01-21T17:58:34.861Z,101338.94
2023-01-21T18:01:06.205Z,101351.63
2023-01-21T18:03:35.873Z,101354.16
2023-01-21T18:07:04.602Z,101361.34
2023-01-21T18:10:33.215Z,101367.41
2023-01-21T18:14:02.248Z,101338.59
2023-01-21T18:17:30.903Z,101354.28
2023-01-21T18:20:59.615Z,101332.78
2023-01-21T18:24:28.299Z,101348.81
2023-01-21T18:27:56.942Z,101345.41
2023-01-21T18:31:25.733Z,101351.91
2023-01-21T18:34:54.441Z,101354.41
2023-01-21T18:38:23.127Z,101345.41
2023-01-21T18:41:51.866Z,101348.34
2023-01-21T18:45:20.634Z,101328.72
2023-01-21T18:48:52.181Z,101347.75
2023-01-21T18:52:20.894Z,101344.38
2023-01-21T18:55:51.310Z,101335.50
2023-01-21T18:59:19.927Z,101332.00
2023-01-21T19:02:54.367Z,101332.13
2023-01-21T19:06:23.047Z,101247.50
2023-01-21T19:09:51.734Z,101319.59
2023-01-21T19:13:20.435Z,101308.88
